Time;durP1;ratioP1;P1;durP2;ratioP2;P2;SDS_P1;SDS_P2;PMS_P1;PMS_P2;Temp;Humidity;BMP_temperature;BMP_pressure;BME280_temperature;BME280_humidity;BME280_pressure;Samples;Min_cycle;Max_cycle;Signal;HPM_P1;HPM_P2
2023/08/17 00:01:24;;;;;;;;;;;24.50;61.40;;;;;;5036517;28;82188;-48
2023/08/17 00:03:50;;;;;;;;;;;24.40;61.30;;;;;;5037130;28;82105;-49
2023/08/17 00:06:15;;;;;;;;;;;24.40;61.20;;;;;;5034682;28;83202;-48
2023/08/17 00:08:41;;;;;;;;;;;24.50;61.30;;;;;;5037855;28;83510;-47
2023/08/17 00:11:07;;;;;;;;;;;24.40;61.20;;;;;;5036271;28;83159;-48
2023/08/17 00:13:32;;;;;;;;;;;24.40;61.30;;;;;;5037576;27;82108;-46
2023/08/17 00:15:58;;;;;;;;;;;24.40;61.30;;;;;;5035263;28;82091;-47
2023/08/17 00:18:23;;;;;;;;;;;24.40;61.30;;;;;;5039312;28;83200;-46
2023/08/17 00:20:49;;;;;;;;;;;24.40;61.30;;;;;;5039365;28;82586;-46
2023/08/17 00:23:14;;;;;;;;;;;24.40;61.30;;;;;;5036729;28;82728;-48
2023/08/17 00:25:40;;;;;;;;;;;24.30;61.20;;;;;;5037312;28;82123;-46
2023/08/17 00:28:05;;;;;;;;;;;24.30;61.30;;;;;;5037929;28;82442;-46
2023/08/17 00:30:31;;;;;;;;;;;24.30;61.20;;;;;;5036895;28;84011;-46
2023/08/17 00:32:56;;;;;;;;;;;24.30;61.30;;;;;;5035860;28;82116;-48
2023/08/17 00:35:22;;;;;;;;;;;24.30;61.20;;;;;;5034516;28;82439;-47
2023/08/17 00:37:47;;;;;;;;;;;24.30;61.20;;;;;;5040099;28;82316;-47
2023/08/17 00:40:13;;;;;;;;;;;24.30;61.20;;;;;;5038282;28;81898;-47
2023/08/17 00:42:38;;;;;;;;;;;24.30;61.20;;;;;;5038027;28;82971;-47
2023/08/17 00:45:04;;;;;;;;;;;24.30;61.20;;;;;;5036982;28;82119;-46
2023/08/17 00:47:30;;;;;;;;;;;24.30;61.30;;;;;;5037648;28;82476;-46
2023/08/17 00:49:56;;;;;;;;;;;24.30;61.30;;;;;;5035226;28;83546;-49
2023/08/17 00:52:21;;;;;;;;;;;24.30;61.20;;;;;;5037307;28;82664;-47
2023/08/17 00:54:47;;;;;;;;;;;24.30;61.20;;;;;;5034502;28;83121;-47
2023/08/17 00:57:12;;;;;;;;;;;24.20;61.10;;;;;;5037895;28;83047;-46
2023/08/17 00:59:38;;;;;;;;;;;24.30;61.20;;;;;;5035116;28;82247;-47
2023/08/17 01:02:04;;;;;;;;;;;24.20;61.20;;;;;;5040120;27;82412;-47
2023/08/17 01:04:31;;;;;;;;;;;24.20;61.10;;;;;;5033340;28;83016;-47
2023/08/17 01:06:56;;;;;;;;;;;24.20;61.10;;;;;;5036557;28;82362;-47
2023/08/17 01:09:22;;;;;;;;;;;24.20;61.10;;;;;;5037016;28;83063;-48
2023/08/17 01:12:00;;;;;;;;;;;24.20;61.20;;;;;;5035637;28;81339;-46
2023/08/17 01:14:58;;;;;;;;;;;24.20;61.20;;;;;;5035636;28;82039;-47
2023/08/17 01:17:29;;;;;;;;;;;24.20;61.10;;;;;;5036621;28;83737;-48
2023/08/17 01:19:55;;;;;;;;;;;24.20;61.20;;;;;;5031173;28;83024;-46
2023/08/17 01:22:22;;;;;;;;;;;24.10;61.10;;;;;;5039637;28;86799;-48
2023/08/17 01:24:48;;;;;;;;;;;24.20;61.10;;;;;;5036969;27;83264;-47
2023/08/17 01:27:13;;;;;;;;;;;24.10;61.10;;;;;;5037698;28;82592;-48
2023/08/17 01:29:39;;;;;;;;;;;24.10;61.10;;;;;;5036004;28;83203;-46
2023/08/17 01:32:04;;;;;;;;;;;24.10;61.10;;;;;;5036686;28;82012;-48
2023/08/17 01:34:32;;;;;;;;;;;24.10;61.10;;;;;;5034503;27;82614;-46
2023/08/17 01:36:59;;;;;;;;;;;24.10;61.20;;;;;;5035635;28;82193;-48
2023/08/17 01:39:34;;;;;;;;;;;24.00;61.10;;;;;;5037260;28;82112;-46
2023/08/17 01:42:00;;;;;;;;;;;24.10;61.10;;;;;;5036030;28;82433;-46
2023/08/17 01:44:27;;;;;;;;;;;24.00;61.10;;;;;;5036695;28;84000;-47
2023/08/17 01:46:53;;;;;;;;;;;24.00;61.20;;;;;;5037104;28;82026;-47
2023/08/17 01:49:18;;;;;;;;;;;24.00;61.20;;;;;;5036473;28;84786;-46
2023/08/17 01:51:44;;;;;;;;;;;24.00;61.10;;;;;;5033785;28;82152;-46
2023/08/17 01:54:09;;;;;;;;;;;24.00;61.10;;;;;;5035328;28;82455;-46
2023/08/17 01:56:35;;;;;;;;;;;24.00;61.10;;;;;;5036253;28;83139;-47
2023/08/17 01:59:00;;;;;;;;;;;24.00;61.20;;;;;;5034994;28;82075;-48
2023/08/17 02:01:26;;;;;;;;;;;24.00;61.10;;;;;;5035840;28;82519;-47
2023/08/17 02:03:51;;;;;;;;;;;23.90;61.00;;;;;;5036137;28;83151;-52
2023/08/17 02:06:17;;;;;;;;;;;23.90;61.10;;;;;;5032786;28;82126;-48
2023/08/17 02:08:44;;;;;;;;;;;23.90;61.10;;;;;;5039591;28;83493;-49
2023/08/17 02:11:10;;;;;;;;;;;23.90;61.10;;;;;;5034121;28;81966;-50
2023/08/17 02:13:37;;;;;;;;;;;23.80;61.10;;;;;;5035895;28;82368;-46
2023/08/17 02:16:05;;;;;;;;;;;23.90;61.10;;;;;;5034556;28;82926;-47
2023/08/17 02:18:31;;;;;;;;;;;23.80;61.10;;;;;;5033747;28;81965;-47
2023/08/17 02:20:57;;;;;;;;;;;23.80;61.10;;;;;;5032976;27;82496;-47
2023/08/17 02:23:22;;;;;;;;;;;23.80;61.10;;;;;;5033264;28;82357;-46
2023/08/17 02:25:48;;;;;;;;;;;23.80;61.10;;;;;;5037657;28;81414;-46
2023/08/17 02:28:13;;;;;;;;;;;23.80;61.00;;;;;;5033293;28;83429;-47
2023/08/17 02:30:39;;;;;;;;;;;23.80;61.00;;;;;;5038881;28;82136;-46
2023/08/17 02:33:05;;;;;;;;;;;23.80;61.10;;;;;;5034221;28;82966;-47
2023/08/17 02:35:30;;;;;;;;;;;23.80;61.10;;;;;;5035603;28;82366;-46
2023/08/17 02:37:56;;;;;;;;;;;23.80;61.10;;;;;;5038447;28;82246;-48
2023/08/17 02:40:21;;;;;;;;;;;23.70;61.00;;;;;;5037811;28;82664;-48
2023/08/17 02:42:47;;;;;;;;;;;23.70;61.10;;;;;;5039193;28;82981;-48
2023/08/17 02:45:12;;;;;;;;;;;23.70;61.00;;;;;;5037143;28;82082;-47
2023/08/17 02:47:38;;;;;;;;;;;23.70;61.00;;;;;;5040452;28;82300;-47
2023/08/17 02:50:04;;;;;;;;;;;23.70;61.10;;;;;;5042452;27;82602;-46
2023/08/17 02:52:29;;;;;;;;;;;23.70;61.00;;;;;;5036283;28;82348;-48
2023/08/17 02:54:55;;;;;;;;;;;23.70;61.10;;;;;;5037408;28;83062;-47
2023/08/17 02:57:20;;;;;;;;;;;23.70;61.00;;;;;;5037754;28;83446;-47
2023/08/17 02:59:46;;;;;;;;;;;23.70;61.00;;;;;;5038679;28;83337;-46
2023/08/17 03:02:11;;;;;;;;;;;23.70;61.00;;;;;;5036703;28;83098;-47
2023/08/17 03:04:37;;;;;;;;;;;23.60;61.00;;;;;;5040086;28;82388;-47
2023/08/17 03:07:02;;;;;;;;;;;23.60;61.00;;;;;;5039261;28;82617;-48
2023/08/17 03:09:28;;;;;;;;;;;23.60;60.90;;;;;;5038792;28;83744;-46
2023/08/17 03:11:53;;;;;;;;;;;23.60;61.00;;;;;;5040227;28;82117;-46
2023/08/17 03:14:19;;;;;;;;;;;23.60;61.00;;;;;;5037398;28;82328;-47
2023/08/17 03:16:44;;;;;;;;;;;23.60;61.00;;;;;;5038708;28;82478;-47
2023/08/17 03:19:11;;;;;;;;;;;23.60;61.00;;;;;;5037738;28;82408;-47
2023/08/17 03:21:37;;;;;;;;;;;23.60;61.00;;;;;;5034323;28;84009;-46
2023/08/17 03:24:02;;;;;;;;;;;23.60;61.00;;;;;;5041423;28;82007;-46
2023/08/17 03:26:28;;;;;;;;;;;23.50;60.90;;;;;;5036153;28;85462;-46
2023/08/17 03:28:54;;;;;;;;;;;23.50;61.00;;;;;;5039902;28;82127;-46
2023/08/17 03:31:22;;;;;;;;;;;23.50;61.00;;;;;;5037019;28;82552;-47
2023/08/17 03:33:48;;;;;;;;;;;23.50;61.00;;;;;;5040657;27;83224;-48
2023/08/17 03:36:13;;;;;;;;;;;23.50;61.00;;;;;;5033307;28;81942;-48
2023/08/17 03:38:39;;;;;;;;;;;23.50;61.00;;;;;;5034833;28;82359;-46
2023/08/17 03:41:05;;;;;;;;;;;23.50;61.10;;;;;;5034549;28;82065;-46
2023/08/17 03:43:31;;;;;;;;;;;23.50;61.60;;;;;;5038775;28;82162;-46
2023/08/17 03:45:56;;;;;;;;;;;23.40;61.00;;;;;;5037213;28;83045;-47
2023/08/17 03:48:22;;;;;;;;;;;23.40;61.00;;;;;;5028197;27;83211;-46
2023/08/17 03:50:52;;;;;;;;;;;23.40;61.00;;;;;;5031735;27;82090;-46
2023/08/17 03:53:17;;;;;;;;;;;23.40;61.00;;;;;;5038185;28;84001;-47
2023/08/17 03:55:45;;;;;;;;;;;23.40;61.00;;;;;;5037077;28;82135;-47
2023/08/17 03:58:11;;;;;;;;;;;23.40;60.90;;;;;;5031776;28;82519;-46
2023/08/17 04:00:37;;;;;;;;;;;23.40;61.00;;;;;;5036989;28;83576;-48
2023/08/17 04:03:02;;;;;;;;;;;23.40;61.00;;;;;;5036918;28;81372;-47
2023/08/17 04:05:28;;;;;;;;;;;23.30;61.00;;;;;;5034286;27;82376;-49
2023/08/17 04:07:53;;;;;;;;;;;23.40;60.90;;;;;;5035208;28;82945;-48
2023/08/17 04:10:19;;;;;;;;;;;23.30;60.90;;;;;;5035053;28;83084;-47
2023/08/17 04:12:44;;;;;;;;;;;23.30;61.00;;;;;;5038268;28;82578;-49
2023/08/17 04:15:10;;;;;;;;;;;23.30;60.90;;;;;;5033902;28;83891;-47
2023/08/17 04:17:35;;;;;;;;;;;23.30;61.00;;;;;;5037131;28;82064;-48
2023/08/17 04:20:01;;;;;;;;;;;23.30;60.90;;;;;;5035219;28;83033;-46
2023/08/17 04:22:26;;;;;;;;;;;23.20;60.80;;;;;;5033764;28;82203;-47
2023/08/17 04:24:52;;;;;;;;;;;23.30;60.90;;;;;;5048312;27;85491;-48
2023/08/17 04:27:17;;;;;;;;;;;23.20;60.80;;;;;;5032525;27;82269;-46
2023/08/17 04:29:43;;;;;;;;;;;23.20;60.90;;;;;;5037537;28;82389;-47
2023/08/17 04:32:13;;;;;;;;;;;23.20;60.80;;;;;;5037716;28;82460;-47
2023/08/17 04:34:41;;;;;;;;;;;23.20;60.90;;;;;;5034778;28;83955;-47
2023/08/17 04:37:06;;;;;;;;;;;23.20;60.90;;;;;;5033866;27;83813;-48
2023/08/17 04:39:32;;;;;;;;;;;23.20;60.90;;;;;;5038222;28;82277;-47
2023/08/17 04:41:58;;;;;;;;;;;23.20;61.00;;;;;;5036524;28;82122;-46
2023/08/17 04:44:23;;;;;;;;;;;23.10;60.90;;;;;;5034113;28;82161;-47
2023/08/17 04:46:49;;;;;;;;;;;23.10;61.00;;;;;;5032335;28;82245;-47
2023/08/17 04:49:14;;;;;;;;;;;23.20;60.90;;;;;;5037677;28;82030;-49
2023/08/17 04:51:40;;;;;;;;;;;23.10;60.90;;;;;;5039355;27;82342;-47
2023/08/17 04:54:05;;;;;;;;;;;23.10;60.90;;;;;;5034502;28;83009;-48
2023/08/17 04:56:31;;;;;;;;;;;23.10;60.90;;;;;;5034978;27;82133;-46
2023/08/17 04:58:56;;;;;;;;;;;23.10;60.90;;;;;;5051731;27;83382;-48
2023/08/17 05:01:22;;;;;;;;;;;23.10;60.90;;;;;;5034128;28;82722;-48
2023/08/17 05:03:47;;;;;;;;;;;23.10;60.90;;;;;;5034985;28;82499;-49
2023/08/17 05:06:13;;;;;;;;;;;23.10;61.00;;;;;;5032191;28;84023;-47
2023/08/17 05:08:39;;;;;;;;;;;23.10;61.00;;;;;;5034239;28;82074;-47
2023/08/17 05:11:05;;;;;;;;;;;23.10;61.00;;;;;;5039493;28;82711;-47
2023/08/17 05:13:30;;;;;;;;;;;23.00;60.90;;;;;;5030044;27;83014;-47
2023/08/17 05:15:56;;;;;;;;;;;23.00;60.90;;;;;;5036416;27;81332;-48
2023/08/17 05:18:21;;;;;;;;;;;23.00;61.00;;;;;;5035114;28;82057;-46
2023/08/17 05:20:47;;;;;;;;;;;23.10;61.00;;;;;;5037269;28;82998;-46
2023/08/17 05:23:12;;;;;;;;;;;23.00;60.90;;;;;;5033765;28;82989;-46
2023/08/17 05:25:38;;;;;;;;;;;23.10;61.10;;;;;;5035140;28;82986;-47
2023/08/17 05:28:03;;;;;;;;;;;23.00;61.10;;;;;;5036885;28;82128;-48
2023/08/17 05:30:29;;;;;;;;;;;23.10;61.00;;;;;;5032059;27;82264;-47
2023/08/17 05:32:54;;;;;;;;;;;23.00;61.00;;;;;;5032236;28;82980;-47
2023/08/17 05:35:20;;;;;;;;;;;23.00;61.00;;;;;;5031010;28;82613;-48
2023/08/17 05:37:45;;;;;;;;;;;23.00;61.00;;;;;;5033570;28;82053;-49
2023/08/17 05:40:11;;;;;;;;;;;23.00;61.00;;;;;;5034697;28;82183;-48
2023/08/17 05:42:36;;;;;;;;;;;23.00;61.00;;;;;;5031506;28;83296;-46
2023/08/17 05:45:02;;;;;;;;;;;23.00;61.10;;;;;;5033926;28;82918;-47
2023/08/17 05:47:28;;;;;;;;;;;23.00;61.10;;;;;;5035881;28;82959;-46
2023/08/17 05:49:53;;;;;;;;;;;23.00;61.10;;;;;;5033332;28;83376;-51
2023/08/17 05:52:19;;;;;;;;;;;23.00;61.10;;;;;;5034203;28;83013;-46
2023/08/17 05:54:44;;;;;;;;;;;23.00;61.10;;;;;;5033823;28;82055;-47
2023/08/17 05:57:10;;;;;;;;;;;23.00;61.10;;;;;;5035588;28;82081;-50
2023/08/17 05:59:36;;;;;;;;;;;23.00;61.20;;;;;;5032333;28;82841;-49
2023/08/17 06:02:01;;;;;;;;;;;23.00;61.00;;;;;;5032711;27;82069;-49
2023/08/17 06:04:27;;;;;;;;;;;23.00;61.10;;;;;;5036587;28;82446;-46
2023/08/17 06:06:52;;;;;;;;;;;23.00;61.20;;;;;;5035846;28;82044;-50
2023/08/17 06:09:18;;;;;;;;;;;23.00;61.20;;;;;;5033641;28;82186;-49
2023/08/17 06:11:43;;;;;;;;;;;23.00;61.20;;;;;;5030153;28;85350;-47
2023/08/17 06:14:09;;;;;;;;;;;23.10;61.30;;;;;;5031141;28;82044;-50
2023/08/17 06:16:35;;;;;;;;;;;23.00;61.30;;;;;;5036600;28;82497;-49
2023/08/17 06:19:01;;;;;;;;;;;23.00;61.30;;;;;;5032287;28;85176;-48
2023/08/17 06:21:26;;;;;;;;;;;23.00;61.30;;;;;;5032660;28;82063;-46
2023/08/17 06:23:52;;;;;;;;;;;23.00;61.30;;;;;;5035699;28;82287;-46
2023/08/17 06:26:18;;;;;;;;;;;23.00;61.30;;;;;;5038583;28;83082;-47
2023/08/17 06:28:43;;;;;;;;;;;23.00;61.30;;;;;;5031853;28;82393;-46
2023/08/17 06:31:09;;;;;;;;;;;23.00;61.40;;;;;;5031826;28;83019;-50
2023/08/17 06:33:34;;;;;;;;;;;23.00;61.40;;;;;;5037085;28;82671;-46
2023/08/17 06:36:00;;;;;;;;;;;23.00;61.30;;;;;;5031637;28;84015;-47
2023/08/17 06:38:25;;;;;;;;;;;23.00;61.40;;;;;;5031235;28;83079;-47
2023/08/17 06:40:52;;;;;;;;;;;23.00;61.30;;;;;;5030086;28;82352;-46
2023/08/17 06:43:17;;;;;;;;;;;23.00;61.30;;;;;;5035353;27;82212;-46
2023/08/17 06:45:43;;;;;;;;;;;23.00;61.30;;;;;;5034096;28;83144;-49
2023/08/17 06:48:08;;;;;;;;;;;23.00;61.30;;;;;;5034725;28;82951;-49
2023/08/17 06:50:34;;;;;;;;;;;23.00;61.30;;;;;;5032415;28;83114;-46
2023/08/17 06:53:00;;;;;;;;;;;23.00;61.40;;;;;;5033106;28;81202;-48
2023/08/17 06:55:26;;;;;;;;;;;23.00;61.40;;;;;;5037381;28;82281;-46
2023/08/17 06:57:51;;;;;;;;;;;23.00;61.40;;;;;;5030609;28;82666;-46
2023/08/17 07:00:20;;;;;;;;;;;23.00;61.40;;;;;;5030746;28;83044;-47
2023/08/17 07:02:46;;;;;;;;;;;23.00;61.40;;;;;;5034620;27;82353;-47
2023/08/17 07:05:13;;;;;;;;;;;23.00;61.30;;;;;;5035598;28;84240;-48
2023/08/17 07:07:39;;;;;;;;;;;23.00;61.40;;;;;;5036935;28;82612;-48
2023/08/17 07:10:04;;;;;;;;;;;23.00;61.30;;;;;;5032669;27;82118;-47
2023/08/17 07:12:30;;;;;;;;;;;23.00;61.30;;;;;;5033358;28;82064;-48
2023/08/17 07:14:55;;;;;;;;;;;23.00;61.40;;;;;;5030011;28;82568;-49
2023/08/17 07:17:21;;;;;;;;;;;23.00;61.40;;;;;;5029762;28;81546;-47
2023/08/17 07:19:46;;;;;;;;;;;23.00;61.40;;;;;;5031770;27;81995;-48
2023/08/17 07:22:12;;;;;;;;;;;23.00;61.40;;;;;;5035193;28;82313;-46
2023/08/17 07:24:38;;;;;;;;;;;23.00;61.40;;;;;;5036948;28;84028;-48
2023/08/17 07:27:03;;;;;;;;;;;23.00;61.40;;;;;;5036063;27;82357;-47
2023/08/17 07:29:29;;;;;;;;;;;23.00;61.40;;;;;;5038938;28;82726;-46
2023/08/17 07:31:58;;;;;;;;;;;23.00;61.40;;;;;;5037025;28;82047;-49
2023/08/17 07:34:23;;;;;;;;;;;23.00;61.40;;;;;;5034314;28;82519;-47
2023/08/17 07:36:49;;;;;;;;;;;23.00;61.40;;;;;;5036604;27;83080;-47
2023/08/17 07:39:14;;;;;;;;;;;23.00;61.40;;;;;;5035937;28;82128;-49
2023/08/17 07:41:40;;;;;;;;;;;23.00;61.30;;;;;;5038055;28;82512;-47
2023/08/17 07:44:05;;;;;;;;;;;23.00;61.40;;;;;;5032426;28;83101;-46
2023/08/17 07:46:31;;;;;;;;;;;23.00;61.40;;;;;;5035903;28;82050;-47
2023/08/17 07:48:56;;;;;;;;;;;23.00;61.40;;;;;;5035267;28;83025;-47
2023/08/17 07:51:22;;;;;;;;;;;23.10;61.40;;;;;;5040786;28;82681;-46
2023/08/17 07:53:47;;;;;;;;;;;23.00;61.30;;;;;;5035405;28;82890;-48
2023/08/17 07:56:13;;;;;;;;;;;23.10;61.40;;;;;;5033072;27;82191;-48
2023/08/17 07:58:39;;;;;;;;;;;23.10;61.40;;;;;;5037457;28;82482;-47
2023/08/17 08:01:05;;;;;;;;;;;23.10;61.40;;;;;;5035525;28;84232;-45
2023/08/17 08:03:31;;;;;;;;;;;23.10;61.40;;;;;;5033812;28;83272;-47
2023/08/17 08:05:56;;;;;;;;;;;23.10;61.30;;;;;;5037476;28;81976;-46
2023/08/17 08:08:22;;;;;;;;;;;23.10;61.40;;;;;;5034820;28;81986;-46
2023/08/17 08:10:47;;;;;;;;;;;23.10;61.40;;;;;;5037139;28;83202;-50
2023/08/17 08:13:13;;;;;;;;;;;23.10;61.40;;;;;;5034613;28;83640;-48
2023/08/17 08:15:38;;;;;;;;;;;23.10;61.40;;;;;;5033681;28;82745;-48
2023/08/17 08:18:04;;;;;;;;;;;23.10;61.40;;;;;;5037624;28;82447;-51
2023/08/17 08:20:29;;;;;;;;;;;23.10;61.30;;;;;;5041230;28;82307;-48
2023/08/17 08:22:55;;;;;;;;;;;23.10;61.30;;;;;;5031399;28;82424;-49
2023/08/17 08:25:20;;;;;;;;;;;23.10;61.30;;;;;;5032484;27;81990;-45
2023/08/17 08:27:46;;;;;;;;;;;23.10;61.30;;;;;;5039109;28;81996;-47
2023/08/17 08:30:11;;;;;;;;;;;23.10;61.30;;;;;;5033383;28;82547;-47
2023/08/17 08:32:37;;;;;;;;;;;23.10;61.30;;;;;;5031865;28;82110;-47
2023/08/17 08:35:03;;;;;;;;;;;23.10;61.30;;;;;;5035581;28;82113;-47
2023/08/17 08:37:28;;;;;;;;;;;23.10;61.30;;;;;;5036910;28;82909;-48
2023/08/17 08:39:54;;;;;;;;;;;23.10;61.20;;;;;;5037709;28;83193;-47
2023/08/17 08:42:20;;;;;;;;;;;23.10;61.20;;;;;;5031911;28;83010;-48
2023/08/17 08:44:46;;;;;;;;;;;23.10;61.20;;;;;;5034337;27;82038;-46
2023/08/17 08:47:12;;;;;;;;;;;23.20;61.20;;;;;;5038610;28;82521;-47
2023/08/17 08:49:51;;;;;;;;;;;23.20;61.20;;;;;;5033345;28;84590;-46
2023/08/17 08:52:19;;;;;;;;;;;23.20;61.10;;;;;;5034579;28;82951;-47
2023/08/17 08:54:45;;;;;;;;;;;23.20;61.10;;;;;;5037416;28;83790;-45
2023/08/17 08:57:16;;;;;;;;;;;23.20;61.20;;;;;;5034942;28;81929;-47
2023/08/17 08:59:44;;;;;;;;;;;23.20;61.10;;;;;;5033020;28;82364;-48
2023/08/17 09:02:19;;;;;;;;;;;23.20;61.10;;;;;;5033342;28;84925;-47
2023/08/17 09:04:45;;;;;;;;;;;23.20;61.10;;;;;;5034742;28;82864;-46
2023/08/17 09:07:11;;;;;;;;;;;23.20;61.10;;;;;;5035938;28;82192;-48
2023/08/17 09:09:37;;;;;;;;;;;23.20;61.10;;;;;;5032455;27;83348;-47
2023/08/17 09:12:03;;;;;;;;;;;23.20;61.10;;;;;;5033940;28;82837;-46
2023/08/17 09:14:29;;;;;;;;;;;23.20;61.10;;;;;;5036082;28;82177;-47
2023/08/17 09:16:58;;;;;;;;;;;23.30;61.10;;;;;;5036958;28;82938;-47
2023/08/17 09:19:24;;;;;;;;;;;23.30;61.10;;;;;;5037150;28;82731;-49
2023/08/17 09:21:50;;;;;;;;;;;23.30;61.10;;;;;;5031686;28;82497;-46
2023/08/17 09:24:15;;;;;;;;;;;23.30;61.00;;;;;;5036670;28;82617;-46
2023/08/17 09:26:41;;;;;;;;;;;23.30;61.20;;;;;;5034379;28;83196;-48
2023/08/17 09:29:16;;;;;;;;;;;23.40;61.00;;;;;;5031297;28;83847;-48
2023/08/17 09:31:43;;;;;;;;;;;23.30;61.00;;;;;;5036525;27;82060;-47
2023/08/17 09:34:08;;;;;;;;;;;23.30;60.90;;;;;;5034333;28;82008;-47
2023/08/17 09:36:35;;;;;;;;;;;23.40;61.10;;;;;;5035086;28;82975;-47
2023/08/17 09:39:01;;;;;;;;;;;23.40;61.00;;;;;;5035736;28;82428;-46
2023/08/17 09:41:26;;;;;;;;;;;23.40;60.90;;;;;;5033008;28;85401;-46
2023/08/17 09:43:54;;;;;;;;;;;23.40;61.00;;;;;;5036352;28;81231;-46
2023/08/17 09:46:19;;;;;;;;;;;23.40;60.90;;;;;;5033764;27;83744;-48
2023/08/17 09:48:45;;;;;;;;;;;23.50;61.10;;;;;;5031460;27;82077;-48
2023/08/17 09:51:14;;;;;;;;;;;23.50;61.10;;;;;;5033085;28;83003;-45
2023/08/17 09:53:40;;;;;;;;;;;23.50;60.90;;;;;;5037609;28;83352;-45
2023/08/17 09:56:07;;;;;;;;;;;23.60;60.70;;;;;;5032295;28;82975;-43
2023/08/17 09:58:33;;;;;;;;;;;23.70;58.90;;;;;;5029366;27;82789;-42
2023/08/17 10:01:02;;;;;;;;;;;24.00;58.90;;;;;;5037006;28;82258;-44
2023/08/17 10:03:30;;;;;;;;;;;24.00;57.70;;;;;;5031589;28;83620;-45
2023/08/17 10:05:59;;;;;;;;;;;24.10;57.90;;;;;;5032018;28;83081;-44
2023/08/17 10:54:07;;;;;;;;;;;25.20;52.90;;;;;;5033765;27;81183;-44
2023/08/17 10:56:32;;;;;;;;;;;25.20;52.30;;;;;;5021529;28;80473;-45
